createdAt,value
2023-02-19T00:01:46.234Z,3.68
2023-02-19T00:04:18.928Z,3.69
2023-02-19T00:06:46.885Z,3.68
2023-02-19T00:09:15.700Z,3.69
2023-02-19T00:11:43.413Z,3.68
2023-02-19T00:14:14.624Z,3.68
2023-02-19T00:16:41.509Z,3.65
2023-02-19T00:19:13.319Z,3.64
2023-02-19T00:21:40.088Z,3.65
2023-02-19T00:24:08.622Z,3.68
2023-02-19T00:26:35.601Z,3.64
2023-02-19T00:29:03.027Z,3.63
2023-02-19T00:31:33.369Z,3.62
2023-02-19T00:34:05.497Z,3.58
2023-02-19T00:36:36.500Z,3.58
2023-02-19T00:39:04.865Z,3.53
2023-02-19T00:41:31.874Z,3.48
2023-02-19T00:44:03.878Z,3.42
2023-02-19T00:46:37.514Z,3.38
2023-02-19T00:49:06.422Z,3.31
2023-02-19T00:51:36.857Z,3.26
2023-02-19T00:54:05.427Z,3.20
2023-02-19T00:56:32.913Z,3.15
2023-02-19T00:58:59.947Z,3.09
2023-02-19T01:01:26.916Z,3.03
2023-02-19T01:03:53.846Z,3.01
2023-02-19T01:06:21.834Z,2.98
2023-02-19T01:08:48.991Z,2.98
2023-02-19T01:11:16.595Z,2.93
2023-02-19T01:13:43.820Z,2.91
2023-02-19T01:16:22.185Z,2.89
2023-02-19T01:18:49.256Z,2.86
2023-02-19T01:21:21.346Z,2.83
2023-02-19T01:23:50.198Z,2.81
2023-02-19T01:26:23.216Z,2.79
2023-02-19T01:28:50.113Z,2.75
2023-02-19T01:31:20.042Z,2.69
2023-02-19T01:33:48.770Z,2.66
2023-02-19T01:36:16.259Z,2.61
2023-02-19T01:38:43.683Z,2.58
2023-02-19T01:41:13.480Z,2.52
2023-02-19T01:44:03.443Z,2.49
2023-02-19T01:46:37.873Z,2.45
2023-02-19T01:49:10.363Z,2.43
2023-02-19T01:51:42.193Z,2.41
2023-02-19T01:54:11.957Z,2.37
2023-02-19T01:56:42.655Z,2.35
2023-02-19T01:59:10.188Z,2.28
2023-02-19T02:01:39.330Z,2.25
2023-02-19T02:04:07.584Z,2.24
2023-02-19T02:06:46.961Z,2.21
2023-02-19T02:09:33.557Z,2.22
2023-02-19T02:12:00.382Z,2.15
2023-02-19T02:14:30.570Z,2.12
2023-02-19T02:17:21.524Z,2.08
2023-02-19T02:20:06.858Z,2.05
2023-02-19T02:23:00.524Z,2.00
2023-02-19T02:25:49.196Z,1.98
2023-02-19T02:28:34.143Z,1.95
2023-02-19T02:31:14.225Z,1.94
2023-02-19T02:34:04.223Z,1.94
2023-02-19T02:36:36.249Z,1.91
2023-02-19T02:39:07.359Z,1.86
2023-02-19T02:41:43.957Z,1.81
2023-02-19T02:44:11.154Z,1.77
2023-02-19T02:46:42.817Z,1.72
2023-02-19T02:49:17.201Z,1.69
2023-02-19T02:51:49.519Z,1.72
2023-02-19T02:54:44.476Z,1.72
2023-02-19T02:57:15.239Z,1.70
2023-02-19T02:59:56.067Z,1.66
2023-02-19T03:02:28.712Z,1.60
2023-02-19T03:05:36.344Z,1.56
2023-02-19T03:08:12.102Z,1.53
2023-02-19T03:10:49.720Z,1.49
2023-02-19T03:13:40.821Z,1.47
2023-02-19T03:16:35.534Z,1.43
2023-02-19T03:19:20.517Z,1.42
2023-02-19T03:22:10.298Z,1.38
2023-02-19T03:25:01.733Z,1.36
2023-02-19T03:27:31.635Z,1.35
2023-02-19T03:30:05.135Z,1.32
2023-02-19T03:32:48.337Z,1.32
2023-02-19T03:35:23.376Z,1.28
2023-02-19T03:38:02.052Z,1.24
2023-02-19T03:40:34.563Z,1.22
2023-02-19T03:43:25.299Z,1.18
2023-02-19T03:45:58.011Z,1.13
2023-02-19T03:48:35.854Z,1.10
2023-02-19T03:51:32.552Z,1.09
2023-02-19T03:54:09.083Z,1.07
2023-02-19T03:56:58.797Z,1.04
2023-02-19T03:59:43.837Z,0.98
2023-02-19T04:02:35.038Z,0.98
2023-02-19T04:05:14.106Z,0.99
2023-02-19T04:07:45.926Z,1.02
2023-02-19T04:10:15.114Z,0.99
2023-02-19T04:12:50.856Z,0.97
2023-02-19T04:15:23.383Z,0.96
2023-02-19T04:18:06.596Z,0.94
2023-02-19T04:20:40.021Z,0.90
2023-02-19T04:23:07.727Z,0.87
2023-02-19T04:25:37.921Z,0.84
2023-02-19T04:28:04.896Z,0.82
2023-02-19T04:30:31.844Z,0.82
2023-02-19T04:32:58.660Z,0.84
2023-02-19T04:35:25.471Z,0.84
2023-02-19T04:37:52.193Z,0.83
2023-02-19T04:40:19.125Z,0.80
2023-02-19T04:42:45.906Z,0.79
2023-02-19T04:45:12.675Z,0.76
2023-02-19T04:47:39.421Z,0.73
2023-02-19T04:50:06.324Z,0.72
2023-02-19T04:52:33.418Z,0.72
2023-02-19T04:55:00.144Z,0.69
2023-02-19T04:57:26.925Z,0.71
2023-02-19T04:59:53.730Z,0.69
2023-02-19T05:02:20.502Z,0.69
2023-02-19T05:04:47.234Z,0.67
2023-02-19T05:07:13.973Z,0.65
2023-02-19T05:09:40.768Z,0.63
2023-02-19T05:12:07.605Z,0.60
2023-02-19T05:14:34.411Z,0.57
2023-02-19T05:17:01.185Z,0.54
2023-02-19T05:19:27.961Z,0.54
2023-02-19T05:21:54.739Z,0.55
2023-02-19T05:24:21.814Z,0.54
2023-02-19T05:26:48.706Z,0.54
2023-02-19T05:29:15.475Z,0.52
2023-02-19T05:31:42.474Z,0.54
2023-02-19T05:34:09.236Z,0.54
2023-02-19T05:36:37.219Z,0.58
2023-02-19T05:39:06.291Z,0.61
2023-02-19T05:41:33.112Z,0.63
2023-02-19T05:44:00.436Z,0.67
2023-02-19T05:46:32.002Z,0.72
2023-02-19T05:48:59.633Z,0.79
2023-02-19T05:51:27.494Z,0.86
2023-02-19T05:53:55.381Z,0.96
2023-02-19T05:56:48.549Z,1.08
2023-02-19T05:59:18.978Z,1.17
2023-02-19T06:01:46.392Z,1.25
2023-02-19T06:04:14.301Z,1.37
2023-02-19T06:06:42.146Z,1.49
2023-02-19T06:09:09.562Z,1.62
2023-02-19T06:11:37.189Z,1.78
2023-02-19T06:14:04.685Z,1.93
2023-02-19T06:16:33.716Z,2.11
2023-02-19T06:19:04.197Z,2.50
2023-02-19T06:21:31.198Z,3.12
2023-02-19T06:23:57.965Z,3.68
2023-02-19T06:26:25.420Z,4.13
2023-02-19T06:28:53.685Z,4.52
2023-02-19T06:31:22.299Z,4.86
2023-02-19T06:33:50.777Z,4.98
2023-02-19T06:36:19.799Z,5.02
2023-02-19T06:38:46.874Z,5.04
2023-02-19T06:41:14.747Z,5.02
2023-02-19T06:43:42.422Z,4.94
2023-02-19T06:46:11.357Z,4.84
2023-02-19T06:48:39.518Z,4.78
2023-02-19T06:51:06.723Z,4.71
2023-02-19T06:53:33.514Z,4.71
2023-02-19T06:56:08.059Z,4.72
2023-02-19T06:58:35.604Z,4.74
2023-02-19T07:01:03.147Z,4.76
2023-02-19T07:03:30.081Z,4.74
2023-02-19T07:05:59.871Z,4.68
2023-02-19T07:08:29.277Z,4.64
2023-02-19T07:10:58.266Z,4.61
2023-02-19T07:13:29.273Z,4.63
2023-02-19T07:16:01.514Z,4.63
2023-02-19T07:18:30.359Z,4.73
2023-02-19T07:21:06.636Z,4.81
2023-02-19T07:23:33.515Z,4.94
2023-02-19T07:26:00.624Z,5.04
2023-02-19T07:28:27.872Z,5.16
2023-02-19T07:30:54.933Z,5.26
2023-02-19T07:33:21.813Z,5.34
2023-02-19T07:35:50.012Z,5.48
2023-02-19T07:38:21.934Z,5.62
2023-02-19T07:41:00.818Z,5.75
2023-02-19T07:43:31.568Z,5.86
2023-02-19T07:45:58.929Z,5.98
2023-02-19T07:48:25.799Z,6.10
2023-02-19T07:50:58.806Z,6.24
2023-02-19T07:53:27.084Z,6.38
2023-02-19T07:55:54.625Z,6.46
2023-02-19T07:58:29.861Z,6.53
2023-02-19T08:00:58.608Z,6.57
2023-02-19T08:03:26.580Z,6.63
2023-02-19T08:06:07.548Z,6.68
2023-02-19T08:08:35.063Z,6.69
2023-02-19T08:11:22.657Z,6.73
2023-02-19T08:13:51.614Z,6.79
2023-02-19T08:16:33.239Z,6.85
2023-02-19T08:19:04.361Z,6.95
2023-02-19T08:21:33.411Z,7.02
2023-02-19T08:24:01.120Z,7.09
2023-02-19T08:26:27.925Z,7.18
2023-02-19T08:28:54.804Z,7.30
2023-02-19T08:31:21.840Z,7.40
2023-02-19T08:33:48.650Z,7.52
2023-02-19T08:36:15.417Z,7.64
2023-02-19T08:38:42.199Z,7.76
2023-02-19T08:41:12.147Z,7.89
2023-02-19T08:43:40.608Z,8.02
2023-02-19T08:46:10.197Z,8.15
2023-02-19T08:48:38.111Z,8.28
2023-02-19T08:51:08.458Z,8.41
2023-02-19T08:53:37.353Z,8.53
2023-02-19T08:56:12.801Z,8.66
2023-02-19T08:58:40.235Z,8.80
2023-02-19T09:01:16.404Z,8.94
2023-02-19T09:03:43.411Z,9.07
2023-02-19T09:06:19.399Z,9.24
2023-02-19T09:08:46.762Z,9.44
2023-02-19T09:11:14.069Z,9.59
2023-02-19T09:13:41.123Z,9.77
2023-02-19T09:16:08.268Z,9.95
2023-02-19T09:18:35.471Z,10.13
2023-02-19T09:21:06.525Z,10.30
2023-02-19T09:23:34.618Z,10.51
2023-02-19T09:26:03.354Z,10.67
2023-02-19T09:28:30.352Z,10.84
2023-02-19T09:30:57.237Z,11.00
2023-02-19T09:33:24.486Z,11.19
2023-02-19T09:35:51.554Z,11.39
2023-02-19T09:38:18.449Z,11.55
2023-02-19T09:40:45.684Z,11.69
2023-02-19T09:43:19.797Z,11.91
2023-02-19T09:45:48.207Z,12.14
2023-02-19T09:48:15.067Z,12.35
2023-02-19T09:50:45.508Z,12.53
2023-02-19T09:53:29.646Z,12.74
2023-02-19T09:55:57.118Z,12.92
2023-02-19T09:58:27.210Z,13.05
2023-02-19T10:00:56.690Z,13.21
2023-02-19T10:03:34.506Z,13.34
2023-02-19T10:06:10.140Z,13.51
2023-02-19T10:08:40.735Z,13.69
2023-02-19T10:11:12.215Z,13.86
2023-02-19T10:13:48.150Z,13.98
2023-02-19T10:16:22.692Z,14.11
2023-02-19T10:18:49.695Z,14.23
2023-02-19T10:21:20.434Z,14.34
2023-02-19T10:23:51.351Z,14.34
2023-02-19T10:26:18.931Z,14.50
2023-02-19T10:28:45.831Z,14.64
2023-02-19T10:31:22.123Z,14.70
2023-02-19T10:33:54.688Z,14.80
2023-02-19T10:36:31.650Z,14.84
2023-02-19T10:39:01.451Z,14.94
2023-02-19T10:41:29.099Z,15.04
2023-02-19T10:44:16.558Z,15.22
2023-02-19T10:46:48.397Z,15.33
2023-02-19T10:49:28.533Z,15.55
2023-02-19T10:51:58.007Z,15.77
2023-02-19T10:54:36.089Z,16.06
2023-02-19T10:57:29.928Z,16.43
2023-02-19T11:00:02.131Z,16.81
2023-02-19T11:02:31.040Z,17.17
2023-02-19T11:05:09.728Z,17.48
2023-02-19T11:07:38.417Z,17.66
2023-02-19T11:10:07.314Z,17.75
2023-02-19T11:12:35.386Z,17.80
2023-02-19T11:15:37.261Z,17.87
2023-02-19T11:18:13.187Z,17.89
2023-02-19T11:21:06.184Z,17.87
2023-02-19T11:23:37.495Z,17.72
2023-02-19T11:26:15.253Z,17.68
2023-02-19T11:28:44.020Z,17.73
2023-02-19T11:31:20.048Z,17.75
2023-02-19T11:34:26.151Z,17.75
2023-02-19T11:37:13.846Z,17.83
2023-02-19T11:39:44.633Z,17.88
2023-02-19T11:42:32.919Z,17.94
2023-02-19T11:45:18.276Z,18.00
2023-02-19T11:48:09.616Z,17.99
2023-02-19T11:50:58.368Z,18.12
2023-02-19T11:53:27.043Z,18.26
2023-02-19T11:56:22.920Z,18.37
2023-02-19T11:59:08.215Z,18.48
2023-02-19T12:01:58.529Z,18.63
2023-02-19T12:05:02.812Z,18.73
2023-02-19T12:07:43.747Z,18.78
2023-02-19T12:10:36.906Z,18.85
2023-02-19T12:13:32.961Z,18.96
2023-02-19T12:16:13.932Z,19.00
2023-02-19T12:19:00.665Z,19.00
2023-02-19T12:21:32.625Z,19.16
2023-02-19T12:24:02.310Z,19.25
2023-02-19T12:26:37.704Z,19.29
2023-02-19T12:29:13.211Z,19.39
2023-02-19T12:32:01.083Z,19.51
2023-02-19T12:34:36.284Z,19.55
2023-02-19T12:37:08.890Z,19.62
2023-02-19T12:39:41.637Z,19.71
2023-02-19T12:42:36.162Z,19.74
2023-02-19T12:45:20.247Z,19.79
2023-02-19T12:48:00.428Z,19.85
2023-02-19T12:50:29.098Z,19.79
2023-02-19T12:53:06.461Z,19.85
2023-02-19T12:55:39.173Z,19.88
2023-02-19T12:58:10.343Z,19.97
2023-02-19T13:00:53.826Z,20.02
2023-02-19T13:03:31.326Z,20.05
2023-02-19T13:06:21.178Z,20.13
2023-02-19T13:09:06.411Z,20.16
2023-02-19T13:11:59.271Z,20.26
2023-02-19T13:14:34.843Z,20.32
2023-02-19T13:17:13.039Z,20.46
2023-02-19T13:19:39.962Z,20.59
2023-02-19T13:22:58.286Z,20.62
2023-02-19T13:25:40.237Z,20.62
2023-02-19T13:28:20.490Z,20.57
2023-02-19T13:31:08.452Z,20.64
2023-02-19T13:34:01.365Z,20.72
2023-02-19T13:36:29.857Z,20.76
2023-02-19T13:38:57.751Z,20.78
2023-02-19T13:41:31.055Z,20.80
2023-02-19T13:44:04.635Z,20.64
2023-02-19T13:46:41.425Z,20.59
2023-02-19T13:49:23.099Z,20.49
2023-02-19T13:51:56.891Z,20.39
2023-02-19T13:54:29.190Z,20.28
2023-02-19T13:57:29.018Z,20.15
2023-02-19T13:59:58.999Z,20.09
2023-02-19T14:02:32.318Z,20.02
2023-02-19T14:05:00.721Z,19.96
2023-02-19T14:07:27.536Z,19.87
2023-02-19T14:09:55.053Z,19.71
2023-02-19T14:12:32.923Z,19.66
2023-02-19T14:15:25.674Z,19.57
2023-02-19T14:17:55.266Z,19.46
2023-02-19T14:20:43.526Z,19.45
2023-02-19T14:23:23.140Z,19.29
2023-02-19T14:25:54.665Z,19.18
2023-02-19T14:28:45.020Z,19.09
2023-02-19T14:31:36.430Z,18.91
2023-02-19T14:34:19.528Z,18.85
2023-02-19T14:37:01.558Z,18.82
2023-02-19T14:39:37.877Z,18.72
2023-02-19T14:42:22.754Z,18.76
2023-02-19T14:44:51.860Z,18.73
2023-02-19T14:47:21.312Z,18.48
2023-02-19T14:50:02.903Z,18.38
2023-02-19T14:52:44.462Z,18.28
2023-02-19T14:55:27.276Z,18.06
2023-02-19T14:57:57.020Z,17.91
2023-02-19T15:00:27.080Z,17.90
2023-02-19T15:02:57.591Z,17.78
2023-02-19T15:05:37.523Z,17.77
2023-02-19T15:08:18.464Z,17.64
2023-02-19T15:10:45.852Z,17.55
2023-02-19T15:13:20.791Z,17.47
2023-02-19T15:15:47.840Z,17.39
2023-02-19T15:18:24.140Z,17.34
2023-02-19T15:20:58.131Z,17.25
2023-02-19T15:23:26.352Z,17.16
2023-02-19T15:25:53.667Z,17.14
2023-02-19T15:28:33.333Z,17.02
2023-02-19T15:31:00.186Z,16.90
2023-02-19T15:33:28.147Z,16.81
2023-02-19T15:35:58.532Z,16.71
2023-02-19T15:38:26.047Z,16.60
2023-02-19T15:40:53.650Z,16.52
2023-02-19T15:43:38.063Z,16.35
2023-02-19T15:46:13.388Z,16.10
2023-02-19T15:48:46.035Z,16.03
2023-02-19T15:51:21.259Z,15.99
2023-02-19T15:53:56.915Z,15.85
2023-02-19T15:56:30.444Z,15.65
2023-02-19T15:59:13.560Z,15.45
2023-02-19T16:01:40.715Z,15.26
2023-02-19T16:04:16.634Z,15.09
2023-02-19T16:06:58.627Z,14.93
2023-02-19T16:09:43.465Z,14.75
2023-02-19T16:12:24.805Z,14.60
2023-02-19T16:14:51.545Z,14.43
2023-02-19T16:17:23.092Z,14.29
2023-02-19T16:19:58.688Z,14.09
2023-02-19T16:22:28.247Z,13.92
2023-02-19T16:25:01.490Z,13.78
2023-02-19T16:27:33.493Z,13.69
2023-02-19T16:30:17.454Z,13.55
2023-02-19T16:32:46.836Z,13.43
2023-02-19T16:35:42.360Z,13.27
2023-02-19T16:38:14.194Z,13.10
2023-02-19T16:40:46.880Z,13.00
2023-02-19T16:43:13.584Z,12.79
2023-02-19T16:45:45.005Z,12.69
2023-02-19T16:48:13.194Z,12.62
2023-02-19T16:50:41.538Z,12.51
2023-02-19T16:53:25.325Z,12.40
2023-02-19T16:55:52.472Z,12.31
2023-02-19T16:58:21.300Z,12.17
2023-02-19T17:00:48.241Z,12.05
2023-02-19T17:03:21.051Z,11.90
2023-02-19T17:05:48.551Z,11.76
2023-02-19T17:08:37.142Z,11.69
2023-02-19T17:11:07.276Z,11.68
2023-02-19T17:13:34.027Z,11.66
2023-02-19T17:16:01.608Z,11.58
2023-02-19T17:18:28.692Z,11.52
2023-02-19T17:21:13.493Z,11.43
2023-02-19T17:23:40.495Z,11.30
2023-02-19T17:26:13.609Z,11.19
2023-02-19T17:28:41.450Z,11.13
2023-02-19T17:31:10.533Z,11.14
2023-02-19T17:33:38.425Z,11.23
2023-02-19T17:36:05.917Z,11.27
2023-02-19T17:38:32.948Z,11.31
2023-02-19T17:40:59.799Z,11.29
2023-02-19T17:43:26.620Z,11.27
2023-02-19T17:45:53.406Z,11.17
2023-02-19T17:48:20.281Z,11.12
2023-02-19T17:50:49.224Z,11.05
2023-02-19T17:53:16.066Z,10.97
2023-02-19T17:55:42.847Z,10.89
2023-02-19T17:58:09.655Z,10.78
2023-02-19T18:00:36.900Z,10.66
2023-02-19T18:03:04.863Z,10.51
2023-02-19T18:05:31.594Z,10.35
2023-02-19T18:07:58.329Z,10.16
2023-02-19T18:10:25.458Z,9.98
2023-02-19T18:12:52.613Z,9.81
2023-02-19T18:15:22.031Z,9.66
2023-02-19T18:17:48.876Z,9.51
2023-02-19T18:20:18.319Z,9.37
2023-02-19T18:22:45.112Z,9.25
2023-02-19T18:25:11.878Z,9.24
2023-02-19T18:27:39.095Z,9.23
2023-02-19T18:30:06.595Z,9.25
2023-02-19T18:32:33.448Z,9.21
2023-02-19T18:35:00.640Z,9.16
2023-02-19T18:37:31.112Z,9.09
2023-02-19T18:39:59.761Z,9.02
2023-02-19T18:42:27.547Z,8.94
2023-02-19T18:44:55.339Z,8.90
2023-02-19T18:47:25.353Z,8.85
2023-02-19T18:49:54.904Z,8.78
2023-02-19T18:52:24.878Z,8.73
2023-02-19T18:54:53.955Z,8.63
2023-02-19T18:57:22.700Z,8.55
2023-02-19T18:59:50.257Z,8.50
2023-02-19T19:02:18.108Z,8.45
2023-02-19T19:04:49.430Z,8.38
2023-02-19T19:07:16.875Z,8.32
2023-02-19T19:09:43.732Z,8.26
2023-02-19T19:12:10.663Z,8.21
2023-02-19T19:14:37.557Z,8.14
2023-02-19T19:17:04.581Z,8.06
2023-02-19T19:19:31.432Z,8.01
2023-02-19T19:21:58.496Z,7.96
2023-02-19T19:24:25.548Z,7.87
2023-02-19T19:26:53.010Z,7.82
2023-02-19T19:29:22.415Z,7.75
2023-02-19T19:31:49.902Z,7.71
2023-02-19T19:34:17.418Z,7.60
2023-02-19T19:36:44.818Z,7.49
2023-02-19T19:39:12.144Z,7.39
2023-02-19T19:41:39.248Z,7.30
2023-02-19T19:44:07.795Z,7.25
2023-02-19T19:46:34.884Z,7.16
2023-02-19T19:49:01.844Z,7.12
2023-02-19T19:51:34.775Z,7.05
2023-02-19T19:54:04.114Z,7.02
2023-02-19T19:56:31.319Z,6.97
2023-02-19T19:59:02.599Z,6.91
2023-02-19T20:01:29.447Z,6.89
2023-02-19T20:03:56.209Z,6.86
2023-02-19T20:06:28.661Z,6.83
2023-02-19T20:08:56.025Z,6.81
2023-02-19T20:11:23.246Z,6.78
2023-02-19T20:13:50.159Z,6.73
2023-02-19T20:16:16.970Z,6.72
2023-02-19T20:18:43.719Z,6.69
2023-02-19T20:21:11.228Z,6.66
2023-02-19T20:23:39.683Z,6.61
2023-02-19T20:26:07.314Z,6.57
2023-02-19T20:28:34.715Z,6.54
2023-02-19T20:31:01.731Z,6.46
2023-02-19T20:33:28.542Z,6.43
2023-02-19T20:35:56.987Z,6.40
2023-02-19T20:38:23.993Z,6.36
2023-02-19T20:40:51.000Z,6.31
2023-02-19T20:43:17.876Z,6.30
2023-02-19T20:45:46.525Z,6.27
2023-02-19T20:48:16.191Z,6.24
2023-02-19T20:50:43.287Z,6.21
2023-02-19T20:53:10.895Z,6.19
2023-02-19T20:55:38.278Z,6.12
2023-02-19T20:58:05.125Z,6.09
2023-02-19T21:00:31.944Z,6.06
2023-02-19T21:02:59.146Z,6.04
2023-02-19T21:05:26.061Z,6.00
2023-02-19T21:07:53.161Z,6.00
2023-02-19T21:10:20.026Z,6.00
2023-02-19T21:12:46.944Z,5.96
2023-02-19T21:15:14.816Z,5.94
2023-02-19T21:17:50.552Z,5.89
2023-02-19T21:20:18.084Z,5.83
2023-02-19T21:22:44.983Z,5.83
2023-02-19T21:25:12.082Z,5.79
2023-02-19T21:27:39.020Z,5.75
2023-02-19T21:30:06.556Z,5.69
2023-02-19T21:32:33.379Z,5.63
2023-02-19T21:35:00.171Z,5.57
2023-02-19T21:37:27.066Z,5.52
2023-02-19T21:39:55.035Z,5.47
2023-02-19T21:42:21.826Z,5.48
2023-02-19T21:44:48.626Z,5.48
2023-02-19T21:47:15.422Z,5.47
2023-02-19T21:49:42.918Z,5.43
2023-02-19T21:52:09.656Z,5.40
2023-02-19T21:54:37.248Z,5.43
2023-02-19T21:57:04.751Z,5.48
2023-02-19T21:59:31.622Z,5.51
2023-02-19T22:01:58.350Z,5.53
2023-02-19T22:04:26.161Z,5.56
2023-02-19T22:06:57.072Z,5.57
2023-02-19T22:09:24.050Z,5.60
2023-02-19T22:11:51.081Z,5.59
2023-02-19T22:14:17.948Z,5.56
2023-02-19T22:16:44.848Z,5.50
2023-02-19T22:19:12.962Z,5.47
2023-02-19T22:21:44.484Z,5.38
2023-02-19T22:24:20.171Z,5.32
2023-02-19T22:26:47.633Z,5.24
2023-02-19T22:29:15.592Z,5.18
2023-02-19T22:31:42.820Z,5.10
2023-02-19T22:34:09.672Z,5.03
2023-02-19T22:36:40.384Z,4.97
2023-02-19T22:39:14.794Z,4.92
2023-02-19T22:41:45.257Z,4.86
2023-02-19T22:44:12.797Z,4.82
2023-02-19T22:46:45.298Z,4.81
2023-02-19T22:49:12.415Z,4.82
2023-02-19T22:51:39.237Z,4.79
2023-02-19T22:54:06.130Z,4.77
2023-02-19T22:56:32.980Z,4.76
2023-02-19T22:58:59.747Z,4.77
2023-02-19T23:01:26.643Z,4.77
2023-02-19T23:03:56.365Z,4.82
2023-02-19T23:06:31.536Z,4.87
2023-02-19T23:09:06.279Z,4.87
2023-02-19T23:11:35.664Z,4.82
2023-02-19T23:14:03.034Z,4.72
2023-02-19T23:16:30.389Z,4.62
2023-02-19T23:18:57.191Z,4.53
2023-02-19T23:21:24.092Z,4.48
2023-02-19T23:23:50.880Z,4.41
2023-02-19T23:26:18.151Z,4.37
2023-02-19T23:28:46.034Z,4.33
2023-02-19T23:31:14.067Z,4.28
2023-02-19T23:33:41.351Z,4.22
2023-02-19T23:36:09.123Z,4.19
2023-02-19T23:38:35.994Z,4.17
2023-02-19T23:41:03.287Z,4.17
2023-02-19T23:43:30.128Z,4.19
2023-02-19T23:45:57.126Z,4.21
2023-02-19T23:48:23.897Z,4.27
2023-02-19T23:50:50.670Z,4.35
2023-02-19T23:53:17.474Z,4.48
2023-02-19T23:55:44.334Z,4.61
2023-02-19T23:58:11.075Z,4.77
